»·PEaware :: RNGR807 KNGP-KNGP

RNGR807 :: KNGP-KNGP

FLIGHT INFORMATION

Flight Status: Arrived
Operator: Unknown
More flights by this operator :: More flights under this callsign
Pilot: USN Avenger (31125)
Aircraft: BEECH AIRCRAFT T-6A TEXAN
(TEX2)
More flights by this aircraft type
Origin: KNGP Corpus Christi NAS/Truax
United States
Destination: KNGP Corpus Christi NAS/Truax
United States
More flights between these airports :: More routes between these airports
Route: , MUSTANG3, KNWL, SHAMROCK,
File this flight plan on PilotEdge
Remarks:
Altitude:
(Current/Filed)
5,500ft
Speed:
(Current/Filed)
240kts
Departed: 28-Nov-23 02:25 PM
Arrived: 28-Nov-23 03:10 PM
Distance/Time
Traveled:
0nm/0:45
Distance/Time
To Go:
Arrived

Flight Plot

Page will automatically refresh every two minutes.

Flight plan parsing failed; only flown route is shown


Map Options




Map Legend


Flown Route
Filed Route
Departure Airport
Arrival Airport
Navaid (VOR, NDB)
Fix

Horizontal Profiles

Position Reports

Time Latitude Longitude Heading Altitude Ground
Speed
28-Nov-23 14:14 27.685929 -97.288134 359 22ft 0kts
28-Nov-23 14:15 27.685929 -97.288134 359 22ft 0kts
28-Nov-23 14:16 27.685929 -97.288134 359 22ft 0kts
28-Nov-23 14:17 27.685929 -97.288134 359 22ft 0kts
28-Nov-23 14:21 27.685929 -97.288134 359 22ft 0kts
28-Nov-23 14:22 27.685930 -97.288134 0 22ft 0kts
28-Nov-23 14:23 27.685931 -97.288134 0 22ft 0kts
28-Nov-23 14:24 27.694556 -97.287973 2 89ft 122kts
28-Nov-23 14:25 27.713726 -97.262533 102 1447ft 142kts
28-Nov-23 14:26 27.696934 -97.209695 113 2708ft 207kts
28-Nov-23 14:27 27.661366 -97.153128 160 3709ft 184kts
28-Nov-23 14:28 27.608508 -97.171619 209 5097ft 210kts
28-Nov-23 14:29 27.554166 -97.203336 204 5556ft 236kts
28-Nov-23 14:30 27.492697 -97.236159 205 5577ft 247kts
28-Nov-23 14:31 27.432680 -97.274007 244 5666ft 255kts
28-Nov-23 14:32 27.471147 -97.295334 57 4220ft 238kts
28-Nov-23 14:33 27.455528 -97.235189 172 2260ft 233kts
28-Nov-23 14:34 27.425771 -97.288320 272 1492ft 223kts
28-Nov-23 14:35 27.450759 -97.346140 332 995ft 208kts
28-Nov-23 14:36 27.504936 -97.362310 352 857ft 203kts
28-Nov-23 14:37 27.555390 -97.340500 25 1038ft 202kts
28-Nov-23 14:38 27.608721 -97.319840 8 1027ft 206kts
28-Nov-23 14:39 27.648743 -97.329331 205 920ft 129kts
28-Nov-23 14:40 27.617976 -97.323632 96 551ft 108kts
28-Nov-23 14:41 27.644961 -97.315145 1 203ft 131kts
28-Nov-23 14:42 27.641661 -97.331991 180 892ft 122kts
28-Nov-23 14:43 27.617454 -97.319588 55 342ft 119kts
28-Nov-23 14:44 27.646931 -97.315241 358 235ft 119kts
28-Nov-23 14:45 27.639247 -97.330569 175 930ft 121kts
28-Nov-23 14:46 27.619498 -97.316857 26 196ft 111kts
28-Nov-23 14:47 27.649035 -97.314062 357 395ft 111kts
28-Nov-23 14:48 27.631028 -97.325332 173 608ft 133kts
28-Nov-23 14:49 27.596617 -97.307671 119 494ft 162kts
28-Nov-23 14:50 27.566346 -97.254039 122 631ft 228kts
28-Nov-23 14:51 27.573931 -97.195881 29 1202ft 229kts
28-Nov-23 14:52 27.635318 -97.167555 19 985ft 242kts
28-Nov-23 14:53 27.694738 -97.134429 29 1000ft 241kts
28-Nov-23 14:54 27.749741 -97.137583 296 1055ft 237kts
28-Nov-23 14:55 27.730459 -97.194331 207 1028ft 208kts
28-Nov-23 14:56 27.680398 -97.225450 216 973ft 206kts
28-Nov-23 14:57 27.670225 -97.282767 303 1073ft 202kts
28-Nov-23 14:58 27.700558 -97.304834 190 870ft 131kts
28-Nov-23 14:59 27.672028 -97.297525 91 742ft 130kts
28-Nov-23 15:00 27.700267 -97.288090 0 142ft 127kts
28-Nov-23 15:01 27.697499 -97.303144 183 974ft 119kts
28-Nov-23 15:02 27.676743 -97.290448 42 327ft 117kts
28-Nov-23 15:03 27.708151 -97.288204 352 415ft 126kts
28-Nov-23 15:04 27.691224 -97.302575 184 829ft 120kts
28-Nov-23 15:05 27.684092 -97.288177 1 75ft 110kts
28-Nov-23 15:06 27.711939 -97.294096 274 616ft 122kts
28-Nov-23 15:07 27.681806 -97.301624 177 792ft 119kts
28-Nov-23 15:08 27.690732 -97.288120 357 23ft 61kts
28-Nov-23 15:09 27.693647 -97.287542 133 22ft 0kts
28-Nov-23 15:10 27.693646 -97.287541 133 22ft 0kts
28-Nov-23 15:11 27.693644 -97.287539 133 22ft 0kts
28-Nov-23 15:12 27.693643 -97.287538 133 22ft 0kts

Navigation Log

Ident Type
Flight plan parsing failed, navigation log unavailable